Time;durP1;ratioP1;P1;durP2;ratioP2;P2;SDS_P1;SDS_P2;PMS_P1;PMS_P2;Temp;Humidity;BMP_temperature;BMP_pressure;BME280_temperature;BME280_humidity;BME280_pressure;Samples;Min_cycle;Max_cycle;Signal;HPM_P1;HPM_P2
2023/04/10 00:00:17;;;;;;;;;;;;;;;23.05;25.29;98906.13;5112312;27;19964;-87
2023/04/10 00:02:43;;;;;;;;;;;;;;;23.20;25.17;98907.63;5106742;27;19963;-88
2023/04/10 00:05:10;;;;;;;;;;;;;;;23.37;24.82;98914.38;5102225;27;19927;-88
2023/04/10 00:07:36;;;;;;;;;;;;;;;23.42;24.50;98910.34;5097962;27;20295;-88
2023/04/10 00:10:02;;;;;;;;;;;;;;;23.45;24.51;98912.34;5097961;27;19920;-89
2023/04/10 00:12:28;;;;;;;;;;;;;;;23.20;24.87;98904.03;5117721;27;19930;-89
2023/04/10 00:14:54;;;;;;;;;;;;;;;22.98;25.38;98899.75;5102994;27;19924;-89
2023/04/10 00:17:20;;;;;;;;;;;;;;;22.95;25.99;98908.94;5103277;27;19924;-87
2023/04/10 00:19:46;;;;;;;;;;;;;;;23.20;25.06;98899.22;5103195;28;19920;-89
2023/04/10 00:22:12;;;;;;;;;;;;;;;23.23;25.00;98903.22;5107558;27;19923;-88
2023/04/10 00:24:38;;;;;;;;;;;;;;;23.18;25.13;98893.22;5109608;28;20299;-89
2023/04/10 00:27:04;;;;;;;;;;;;;;;23.17;24.93;98890.84;5101518;27;19920;-89
2023/04/10 00:29:30;;;;;;;;;;;;;;;23.04;24.97;98887.69;5080141;28;20018;-89
2023/04/10 00:31:56;;;;;;;;;;;;;;;22.92;25.33;98882.56;5084603;28;19916;-89
2023/04/10 00:34:23;;;;;;;;;;;;;;;22.88;25.22;98881.78;5104757;28;19928;-89
2023/04/10 00:36:49;;;;;;;;;;;;;;;22.82;25.70;98882.63;5100484;27;19931;-89
2023/04/10 00:39:15;;;;;;;;;;;;;;;22.86;25.22;98881.38;5107612;27;19923;-89
2023/04/10 00:41:41;;;;;;;;;;;;;;;22.74;25.04;98889.44;5101794;28;19920;-89
2023/04/10 00:44:07;;;;;;;;;;;;;;;22.74;25.42;98892.22;5108802;27;20386;-89
2023/04/10 00:46:36;;;;;;;;;;;;;;;22.59;26.29;98883.84;5110689;27;19992;-89
2023/04/10 00:49:02;;;;;;;;;;;;;;;22.72;25.87;98886.25;5105084;27;19920;-88
2023/04/10 00:51:28;;;;;;;;;;;;;;;22.50;24.46;98894.66;5098404;28;19973;-89
2023/04/10 00:53:54;;;;;;;;;;;;;;;22.38;24.46;98891.53;5107994;27;19931;-89
2023/04/10 00:56:22;;;;;;;;;;;;;;;22.27;24.64;98888.72;5100704;27;20052;-89
2023/04/10 00:58:48;;;;;;;;;;;;;;;22.29;25.09;98891.91;5100059;27;19931;-84
2023/04/10 01:01:14;;;;;;;;;;;;;;;22.62;24.83;98897.06;5099324;28;19973;-86
2023/04/10 01:03:41;;;;;;;;;;;;;;;22.76;24.32;98890.63;5104765;27;19916;-86
2023/04/10 01:06:15;;;;;;;;;;;;;;;22.80;24.59;98894.19;5103058;27;20291;-87
2023/04/10 01:08:44;;;;;;;;;;;;;;;22.79;24.22;98889.81;5100128;27;19920;-87
2023/04/10 01:11:17;;;;;;;;;;;;;;;22.67;24.94;98890.25;5093734;28;20372;-88
2023/04/10 01:14:16;;;;;;;;;;;;;;;22.74;25.40;98893.03;5110071;27;20007;-88
2023/04/10 01:16:48;;;;;;;;;;;;;;;22.90;25.44;98892.56;5074494;28;19977;-88
2023/04/10 01:19:26;;;;;;;;;;;;;;;23.10;25.39;98891.69;5107787;28;19924;-87
2023/04/10 01:21:53;;;;;;;;;;;;;;;23.05;25.56;98888.50;5099766;27;20406;-88
2023/04/10 01:24:20;;;;;;;;;;;;;;;22.93;26.11;98889.75;5104742;28;20601;-87
2023/04/10 01:27:08;;;;;;;;;;;;;;;22.94;26.99;98879.38;5099524;28;19921;-87
2023/04/10 01:29:35;;;;;;;;;;;;;;;23.26;26.48;98880.00;5100245;27;19981;-86
2023/04/10 01:32:03;;;;;;;;;;;;;;;23.58;25.84;98875.00;5100628;27;19934;-87
2023/04/10 01:34:46;;;;;;;;;;;;;;;23.60;25.81;98875.38;5078091;28;19927;-88
2023/04/10 01:37:19;;;;;;;;;;;;;;;23.35;26.29;98872.75;5097973;28;20461;-88
2023/04/10 01:39:48;;;;;;;;;;;;;;;23.21;26.47;98870.00;5105151;28;19924;-88
2023/04/10 01:42:16;;;;;;;;;;;;;;;23.40;26.43;98865.13;5100820;28;19924;-89
2023/04/10 01:44:45;;;;;;;;;;;;;;;23.58;25.38;98872.19;5092896;28;19920;-88
2023/04/10 01:47:13;;;;;;;;;;;;;;;22.99;25.27;98882.53;5090338;27;19919;-88
2023/04/10 01:49:43;;;;;;;;;;;;;;;22.92;26.48;98888.16;5088276;28;19924;-88
2023/04/10 01:52:10;;;;;;;;;;;;;;;23.42;26.16;98879.50;5091036;28;20294;-87
2023/04/10 01:54:36;;;;;;;;;;;;;;;23.67;25.71;98880.13;5097086;28;19936;-88
2023/04/10 01:57:03;;;;;;;;;;;;;;;23.64;26.29;98876.13;5091849;28;20353;-88
2023/04/10 01:59:30;;;;;;;;;;;;;;;23.42;26.67;98873.91;5091725;27;19955;-87
2023/04/10 02:01:56;;;;;;;;;;;;;;;23.32;27.36;98881.13;5086375;28;19928;-87
2023/04/10 02:04:22;;;;;;;;;;;;;;;23.49;27.04;98877.47;5094966;28;19924;-87
2023/04/10 02:06:56;;;;;;;;;;;;;;;23.81;26.74;98886.44;5087646;28;20014;-87
2023/04/10 02:09:24;;;;;;;;;;;;;;;23.96;26.17;98882.31;5093699;28;19928;-87
2023/04/10 02:11:56;;;;;;;;;;;;;;;23.93;26.30;98890.75;5099531;28;20265;-87
2023/04/10 02:14:23;;;;;;;;;;;;;;;24.03;25.67;98887.06;5094918;28;19920;-87
2023/04/10 02:16:51;;;;;;;;;;;;;;;24.04;26.33;98894.25;5107621;28;20419;-88
2023/04/10 02:19:18;;;;;;;;;;;;;;;24.04;26.26;98886.63;5113130;28;20022;-87
2023/04/10 02:21:44;;;;;;;;;;;;;;;23.98;26.42;98885.50;5103613;28;20378;-87
2023/04/10 02:24:10;;;;;;;;;;;;;;;24.02;26.27;98891.88;5100088;27;19924;-87
2023/04/10 02:26:46;;;;;;;;;;;;;;;24.12;26.69;98884.59;5108532;27;19920;-87
2023/04/10 02:29:13;;;;;;;;;;;;;;;24.29;26.67;98878.03;5104844;27;19965;-87
2023/04/10 02:31:41;;;;;;;;;;;;;;;24.31;26.41;98880.41;5115390;27;19930;-87
2023/04/10 02:34:07;;;;;;;;;;;;;;;24.28;26.77;98881.22;5109448;27;19952;-89
2023/04/10 02:36:34;;;;;;;;;;;;;;;24.36;25.85;98883.56;5091626;27;19974;-88
2023/04/10 02:39:00;;;;;;;;;;;;;;;24.05;26.78;98877.00;5115450;28;19920;-88
2023/04/10 02:41:26;;;;;;;;;;;;;;;24.26;26.56;98875.22;5103581;28;19926;-88
2023/04/10 02:43:52;;;;;;;;;;;;;;;24.42;25.66;98879.06;5111221;27;19919;-87
2023/04/10 02:46:18;;;;;;;;;;;;;;;24.22;26.19;98880.91;5107001;27;20368;-89
2023/04/10 02:48:44;;;;;;;;;;;;;;;24.22;26.43;98880.09;5107004;27;19965;-89
2023/04/10 02:51:10;;;;;;;;;;;;;;;24.24;26.68;98883.28;5112634;27;19923;-87
2023/04/10 02:53:36;;;;;;;;;;;;;;;24.09;26.74;98887.41;5104583;27;19931;-86
2023/04/10 02:56:05;;;;;;;;;;;;;;;24.05;27.19;98879.00;5110282;27;20024;-86
2023/04/10 02:58:31;;;;;;;;;;;;;;;24.14;26.82;98875.75;5103635;27;19927;-87
2023/04/10 03:00:57;;;;;;;;;;;;;;;24.22;27.16;98880.91;5111455;28;19959;-89
2023/04/10 03:03:23;;;;;;;;;;;;;;;24.41;27.00;98873.88;5105636;27;19920;-90
2023/04/10 03:05:49;;;;;;;;;;;;;;;24.57;26.78;98876.91;5107079;27;19931;-88
2023/04/10 03:08:16;;;;;;;;;;;;;;;24.76;26.55;98878.31;5107058;27;19927;-88
2023/04/10 03:10:47;;;;;;;;;;;;;;;24.79;26.73;98880.28;5103213;27;19932;-88
2023/04/10 03:13:14;;;;;;;;;;;;;;;24.97;26.51;98881.66;5105821;28;19924;-88
2023/04/10 03:15:40;;;;;;;;;;;;;;;24.83;26.31;98879.06;5098651;28;19920;-88
2023/04/10 03:18:06;;;;;;;;;;;;;;;24.81;26.53;98875.06;5101877;27;19920;-89
2023/04/10 03:20:35;;;;;;;;;;;;;;;24.46;26.62;98873.41;5110541;28;19965;-88
2023/04/10 03:23:01;;;;;;;;;;;;;;;24.29;27.35;98877.22;5101988;27;19938;-88
2023/04/10 03:25:27;;;;;;;;;;;;;;;24.26;27.21;98878.03;5098463;27;19926;-86
2023/04/10 03:27:54;;;;;;;;;;;;;;;23.94;27.70;98879.09;5109506;27;19936;-87
2023/04/10 03:30:20;;;;;;;;;;;;;;;23.99;27.67;98881.47;5101536;28;20383;-86
2023/04/10 03:32:46;;;;;;;;;;;;;;;24.01;28.22;98886.69;5097993;28;19924;-85
2023/04/10 03:35:12;;;;;;;;;;;;;;;24.10;27.58;98873.00;5116809;27;19919;-87
2023/04/10 03:37:38;;;;;;;;;;;;;;;24.27;27.46;98874.03;5098526;27;19928;-86
2023/04/10 03:40:06;;;;;;;;;;;;;;;24.34;27.93;98873.97;5106692;28;19964;-87
2023/04/10 03:42:32;;;;;;;;;;;;;;;24.49;27.26;98875.38;5082904;28;19919;-88
2023/04/10 03:44:58;;;;;;;;;;;;;;;24.48;27.79;98877.41;5107518;27;20010;-87
2023/04/10 03:47:24;;;;;;;;;;;;;;;24.42;27.30;98878.28;5107205;27;20041;-87
2023/04/10 03:49:50;;;;;;;;;;;;;;;24.25;27.94;98879.28;5104642;27;19927;-88
2023/04/10 03:52:16;;;;;;;;;;;;;;;23.76;28.10;98875.66;5102469;27;19916;-87
2023/04/10 03:54:42;;;;;;;;;;;;;;;23.33;28.93;98877.16;5103926;27;19920;-87
2023/04/10 03:57:08;;;;;;;;;;;;;;;23.05;29.56;98883.72;5110185;27;19928;-87
2023/04/10 03:59:34;;;;;;;;;;;;;;;23.00;29.74;98880.53;5099919;27;19916;-87
2023/04/10 04:02:00;;;;;;;;;;;;;;;23.07;29.91;98881.28;5107888;27;19920;-87
2023/04/10 04:04:26;;;;;;;;;;;;;;;22.75;30.46;98885.44;5101624;27;19916;-87
2023/04/10 04:06:52;;;;;;;;;;;;;;;23.15;29.66;98880.03;5111532;28;20329;-86
2023/04/10 04:09:19;;;;;;;;;;;;;;;23.40;29.70;98888.34;5092507;28;19924;-87
2023/04/10 04:11:45;;;;;;;;;;;;;;;23.55;29.13;98891.84;5107601;27;19961;-87
2023/04/10 04:14:11;;;;;;;;;;;;;;;23.66;29.12;98884.97;5110602;27;19923;-87
2023/04/10 04:16:37;;;;;;;;;;;;;;;23.60;29.17;98882.97;5105957;28;20359;-87
2023/04/10 04:19:03;;;;;;;;;;;;;;;23.55;29.42;98884.22;5101282;27;20024;-88
2023/04/10 04:21:30;;;;;;;;;;;;;;;23.20;30.09;98887.22;5101733;27;19924;-88
2023/04/10 04:23:56;;;;;;;;;;;;;;;23.19;29.69;98880.84;5101429;27;19924;-88
2023/04/10 04:26:23;;;;;;;;;;;;;;;22.95;30.25;98892.16;5098294;27;20332;-87
2023/04/10 04:28:49;;;;;;;;;;;;;;;22.93;30.28;98886.97;5082984;27;19920;-87
2023/04/10 04:31:15;;;;;;;;;;;;;;;22.76;31.01;98887.81;5098228;28;19920;-88
2023/04/10 04:33:41;;;;;;;;;;;;;;;22.95;30.43;98889.34;5110113;27;19927;-88
2023/04/10 04:36:07;;;;;;;;;;;;;;;23.10;30.50;98897.28;5110381;27;19920;-89
2023/04/10 04:38:34;;;;;;;;;;;;;;;23.24;30.17;98890.81;5090142;28;20272;-89
2023/04/10 04:41:00;;;;;;;;;;;;;;;23.01;30.44;98896.13;5104736;27;19926;-88
2023/04/10 04:43:26;;;;;;;;;;;;;;;22.80;30.63;98901.81;5104335;27;19919;-88
2023/04/10 04:45:52;;;;;;;;;;;;;;;22.89;30.61;98902.19;5104029;27;19920;-88
2023/04/10 04:48:18;;;;;;;;;;;;;;;22.91;30.87;98906.19;5105106;27;19924;-87
2023/04/10 04:50:44;;;;;;;;;;;;;;;23.20;30.20;98901.22;5102272;28;20347;-87
2023/04/10 04:53:10;;;;;;;;;;;;;;;23.31;30.40;98899.94;5113077;27;19926;-87
2023/04/10 04:55:36;;;;;;;;;;;;;;;23.56;29.99;98902.66;5099378;27;19927;-89
2023/04/10 04:58:02;;;;;;;;;;;;;;;23.68;29.66;98901.38;5102266;27;19931;-89
2023/04/10 05:00:28;;;;;;;;;;;;;;;23.38;29.81;98901.97;5102617;27;20022;-86
2023/04/10 05:02:54;;;;;;;;;;;;;;;23.18;30.73;98896.03;5099436;27;19926;-85
2023/04/10 05:05:20;;;;;;;;;;;;;;;23.17;30.09;98899.25;5085344;28;19916;-86
2023/04/10 05:07:46;;;;;;;;;;;;;;;22.81;31.07;98897.81;5107218;27;19924;-85
2023/04/10 05:10:14;;;;;;;;;;;;;;;22.91;31.09;98900.56;5101269;28;20415;-86
2023/04/10 05:12:41;;;;;;;;;;;;;;;23.08;30.56;98910.09;5105528;28;19927;-85
2023/04/10 05:15:08;;;;;;;;;;;;;;;23.53;29.69;98902.66;5104823;28;20173;-85
2023/04/10 05:17:34;;;;;;;;;;;;;;;23.53;29.80;98905.47;5101856;28;20379;-85
2023/04/10 05:20:00;;;;;;;;;;;;;;;23.33;30.13;98900.38;5110137;27;19942;-85
2023/04/10 05:22:27;;;;;;;;;;;;;;;22.94;30.91;98921.38;5100555;27;19932;-86
2023/04/10 05:24:54;;;;;;;;;;;;;;;23.33;30.38;98922.78;5103709;28;19924;-86
2023/04/10 05:27:20;;;;;;;;;;;;;;;23.49;30.17;98929.91;5104916;27;20011;-86
2023/04/10 05:29:46;;;;;;;;;;;;;;;23.57;30.04;98923.06;5102594;28;20451;-88
2023/04/10 05:32:12;;;;;;;;;;;;;;;23.44;29.86;98925.53;5098384;28;19920;-88
2023/04/10 05:34:38;;;;;;;;;;;;;;;23.23;30.62;98934.84;5100706;28;19959;-88
2023/04/10 05:37:04;;;;;;;;;;;;;;;23.00;30.36;98931.75;5101762;27;19931;-88
2023/04/10 05:39:30;;;;;;;;;;;;;;;22.88;30.73;98923.78;5104574;28;19927;-88
2023/04/10 05:41:57;;;;;;;;;;;;;;;23.19;30.43;98933.25;5109889;28;20398;-88
2023/04/10 05:44:23;;;;;;;;;;;;;;;23.29;30.26;98932.41;5105241;28;19924;-88
2023/04/10 05:46:49;;;;;;;;;;;;;;;23.33;30.48;98933.19;5112354;27;20401;-89
2023/04/10 05:49:15;;;;;;;;;;;;;;;23.42;29.92;98922.34;5110902;27;19966;-88
2023/04/10 05:51:41;;;;;;;;;;;;;;;23.19;30.85;98928.47;5104134;27;19920;-89
2023/04/10 05:54:07;;;;;;;;;;;;;;;23.25;30.44;98926.81;5107575;28;19969;-88
2023/04/10 05:56:33;;;;;;;;;;;;;;;22.97;30.59;98934.53;5100152;28;19972;-87
2023/04/10 05:59:00;;;;;;;;;;;;;;;22.58;31.78;98931.84;5101454;28;20341;-87
2023/04/10 06:01:26;;;;;;;;;;;;;;;23.11;31.04;98928.88;5100765;28;19923;-87
2023/04/10 06:03:52;;;;;;;;;;;;;;;23.26;30.29;98922.03;5098778;28;19920;-87
2023/04/10 06:06:19;;;;;;;;;;;;;;;22.98;30.86;98924.94;5101647;28;19923;-87
2023/04/10 06:08:45;;;;;;;;;;;;;;;22.73;31.49;98922.25;5106445;28;19920;-88
2023/04/10 06:11:26;;;;;;;;;;;;;;;22.59;31.72;98925.84;5098959;28;19916;-87
2023/04/10 06:13:52;;;;;;;;;;;;;;;22.69;31.65;98929.84;5096109;28;19928;-87
2023/04/10 06:16:18;;;;;;;;;;;;;;;22.67;31.43;98930.25;5105649;28;20064;-90
2023/04/10 06:18:45;;;;;;;;;;;;;;;22.79;31.45;98931.00;5101835;28;19981;-88
2023/04/10 06:21:11;;;;;;;;;;;;;;;22.79;31.46;98931.81;5110391;28;19920;-88
2023/04/10 06:23:37;;;;;;;;;;;;;;;23.10;31.15;98930.09;5097547;28;19968;-87
2023/04/10 06:26:03;;;;;;;;;;;;;;;23.21;30.82;98931.66;5094083;28;19980;-88
2023/04/10 06:28:29;;;;;;;;;;;;;;;23.30;30.79;98934.81;5085862;28;19926;-89
2023/04/10 06:30:56;;;;;;;;;;;;;;;23.29;30.80;98932.41;5096471;28;19924;-90
2023/04/10 06:33:22;;;;;;;;;;;;;;;23.04;31.54;98926.91;5101722;28;20379;-89
2023/04/10 06:35:54;;;;;;;;;;;;;;;22.91;31.45;98927.78;5117721;28;19920;-89
2023/04/10 06:38:20;;;;;;;;;;;;;;;22.60;31.40;98929.44;5099096;28;19943;-87
2023/04/10 06:40:46;;;;;;;;;;;;;;;22.64;32.07;98933.84;5100739;28;20383;-86
2023/04/10 06:43:12;;;;;;;;;;;;;;;22.83;31.35;98929.00;5098744;28;19920;-86
2023/04/10 06:45:38;;;;;;;;;;;;;;;22.32;32.36;98932.28;5107000;28;19924;-87
2023/04/10 06:48:05;;;;;;;;;;;;;;;22.99;31.58;98935.72;5095932;28;20394;-87
2023/04/10 06:50:31;;;;;;;;;;;;;;;22.55;32.01;98938.25;5099569;28;19927;-87
2023/04/10 06:52:58;;;;;;;;;;;;;;;22.93;31.56;98936.56;5097507;28;19928;-88
2023/04/10 06:55:25;;;;;;;;;;;;;;;22.80;31.90;98941.03;5109984;28;19920;-85
2023/04/10 06:57:51;;;;;;;;;;;;;;;23.21;31.15;98942.06;5093692;28;19978;-87
2023/04/10 07:00:18;;;;;;;;;;;;;;;23.47;30.57;98932.34;5102227;28;19920;-88
2023/04/10 07:02:44;;;;;;;;;;;;;;;23.30;31.23;98946.00;5103319;28;19962;-89
2023/04/10 07:05:10;;;;;;;;;;;;;;;23.48;30.87;98945.94;5102878;28;19920;-87
2023/04/10 07:07:36;;;;;;;;;;;;;;;23.43;30.70;98943.59;5103482;28;19930;-95
2023/04/10 07:10:03;;;;;;;;;;;;;;;23.67;30.81;98941.81;5111946;27;20354;-95
2023/04/10 07:12:29;;;;;;;;;;;;;;;23.87;30.22;98945.69;5120342;27;19920;-96
2023/04/10 07:14:55;;;;;;;;;;;;;;;24.07;29.37;98938.34;5102069;28;19938;-93
2023/04/10 07:17:21;;;;;;;;;;;;;;;23.54;30.67;98946.31;5106812;27;20438;-95
2023/04/10 07:19:47;;;;;;;;;;;;;;;23.42;30.52;98947.59;5106425;27;19916;-96
2023/04/10 07:22:13;;;;;;;;;;;;;;;23.36;31.14;98955.59;5101688;28;19919;-92
2023/04/10 07:24:39;;;;;;;;;;;;;;;23.46;30.43;98945.53;5092341;28;20359;-89
2023/04/10 07:27:05;;;;;;;;;;;;;;;23.38;31.00;98952.41;5109047;27;19919;-95
2023/04/10 07:29:31;;;;;;;;;;;;;;;23.61;30.59;98951.88;5112647;27;19920;-91
2023/04/10 07:31:57;;;;;;;;;;;;;;;23.81;30.73;98950.13;5101057;28;20684;-95
2023/04/10 07:34:25;;;;;;;;;;;;;;;23.96;30.22;98958.03;5105673;27;20014;-95
2023/04/10 07:36:51;;;;;;;;;;;;;;;23.96;30.51;98952.44;5106834;27;20006;-89
2023/04/10 07:39:17;;;;;;;;;;;;;;;24.25;30.06;98950.22;5108620;28;19919;-86
2023/04/10 07:41:43;;;;;;;;;;;;;;;23.79;30.45;98946.94;5108464;27;20284;-84
2023/04/10 07:44:09;;;;;;;;;;;;;;;23.76;30.18;98942.94;5103091;27;19973;-83
2023/04/10 07:46:35;;;;;;;;;;;;;;;23.54;31.07;98941.50;5101623;27;19920;-84
2023/04/10 07:49:01;;;;;;;;;;;;;;;23.29;31.21;98946.44;5107829;27;19919;-84
2023/04/10 07:51:27;;;;;;;;;;;;;;;23.24;31.56;98944.81;5103275;28;19924;-82
2023/04/10 07:53:56;;;;;;;;;;;;;;;23.19;31.00;98945.28;5095779;27;19938;-83
2023/04/10 07:56:22;;;;;;;;;;;;;;;23.19;31.34;98944.47;5096906;28;19920;-83
2023/04/10 07:58:50;;;;;;;;;;;;;;;23.14;31.50;98937.28;5081723;28;19957;-85
2023/04/10 08:01:16;;;;;;;;;;;;;;;23.03;31.74;98944.13;5099217;27;19932;-86
2023/04/10 08:03:43;;;;;;;;;;;;;;;23.12;31.45;98945.31;5097288;27;20290;-89
2023/04/10 08:06:09;;;;;;;;;;;;;;;23.05;31.77;98944.53;5099794;28;19934;-84
2023/04/10 08:08:39;;;;;;;;;;;;;;;23.01;31.73;98950.13;5102183;27;19920;-89
2023/04/10 08:11:07;;;;;;;;;;;;;;;23.25;31.47;98942.81;5093875;27;20018;-82
2023/04/10 08:13:33;;;;;;;;;;;;;;;23.00;31.38;98945.75;5097625;28;20060;-82
2023/04/10 08:15:59;;;;;;;;;;;;;;;23.34;31.56;98945.97;5102269;27;20415;-84
2023/04/10 08:18:25;;;;;;;;;;;;;;;23.68;30.93;98947.03;5107979;27;19938;-82
2023/04/10 08:20:51;;;;;;;;;;;;;;;23.58;31.12;98947.88;5095106;27;19927;-84
2023/04/10 08:23:17;;;;;;;;;;;;;;;23.31;31.05;98950.38;5098554;28;19946;-83
2023/04/10 08:25:43;;;;;;;;;;;;;;;23.60;30.83;98945.47;5101732;28;20015;-85
2023/04/10 08:28:09;;;;;;;;;;;;;;;23.68;31.49;98952.63;5102520;27;19970;-85
2023/04/10 08:30:35;;;;;;;;;;;;;;;24.05;31.05;98951.97;5084063;28;19963;-83
2023/04/10 08:33:01;;;;;;;;;;;;;;;23.47;31.72;98949.16;5098058;27;20471;-83
2023/04/10 08:35:27;;;;;;;;;;;;;;;23.30;32.04;98948.00;5089949;27;20019;-83
2023/04/10 08:37:53;;;;;;;;;;;;;;;22.81;32.33;98948.19;5103431;28;20002;-83
2023/04/10 08:40:19;;;;;;;;;;;;;;;23.19;32.02;98952.88;5081054;28;19974;-83
2023/04/10 08:42:45;;;;;;;;;;;;;;;23.30;32.59;98956.41;5099883;27;19924;-84
2023/04/10 08:45:11;;;;;;;;;;;;;;;23.48;31.79;98957.16;5107070;28;19930;-84
2023/04/10 08:47:37;;;;;;;;;;;;;;;23.21;31.91;98948.47;5102513;28;20295;-83
2023/04/10 08:50:05;;;;;;;;;;;;;;;22.68;32.79;98947.84;5103660;28;19935;-85
2023/04/10 08:52:33;;;;;;;;;;;;;;;22.73;33.51;98947.44;5107979;27;19972;-83
2023/04/10 08:55:01;;;;;;;;;;;;;;;23.21;31.80;98947.66;5099315;27;20022;-83
2023/04/10 08:57:27;;;;;;;;;;;;;;;23.24;32.10;98939.22;5104688;27;19926;-83
2023/04/10 08:59:54;;;;;;;;;;;;;;;23.29;32.29;98940.81;5104543;28;19926;-83
2023/04/10 09:02:20;;;;;;;;;;;;;;;23.45;31.82;98943.97;5106612;27;19919;-83
2023/04/10 09:04:53;;;;;;;;;;;;;;;22.88;33.12;98946.19;5098976;28;19967;-83
2023/04/10 09:07:19;;;;;;;;;;;;;;;22.63;33.63;98946.28;5098794;27;19920;-83
2023/04/10 09:09:45;;;;;;;;;;;;;;;23.07;32.26;98939.31;5099489;28;19920;-83
2023/04/10 09:12:12;;;;;;;;;;;;;;;23.05;32.91;98944.53;5100332;28;19955;-83
2023/04/10 09:14:39;;;;;;;;;;;;;;;23.41;32.98;98929.16;5105375;27;19930;-83
2023/04/10 09:17:13;;;;;;;;;;;;;;;23.80;31.88;98931.72;5105076;27;20026;-83
2023/04/10 09:19:39;;;;;;;;;;;;;;;23.78;31.95;98936.94;5103187;27;19950;-84
2023/04/10 09:22:06;;;;;;;;;;;;;;;22.96;33.52;98935.75;5103063;28;19955;-83
2023/04/10 09:24:39;;;;;;;;;;;;;;;22.41;34.43;98939.06;5106045;27;20002;-83
2023/04/10 09:27:06;;;;;;;;;;;;;;;22.51;34.20;98921.47;5095780;28;20410;-83
2023/04/10 09:29:42;;;;;;;;;;;;;;;23.33;32.98;98922.78;5096650;28;19941;-85
2023/04/10 09:32:09;;;;;;;;;;;;;;;23.32;33.60;98931.59;5101074;28;19920;-85
2023/04/10 09:34:50;;;;;;;;;;;;;;;23.79;32.37;98930.13;5102907;27;19947;-85
2023/04/10 09:37:19;;;;;;;;;;;;;;;23.56;32.85;98919.47;5096315;28;20342;-84
2023/04/10 09:39:45;;;;;;;;;;;;;;;23.78;33.32;98929.31;5103281;28;19920;-86
2023/04/10 09:42:12;;;;;;;;;;;;;;;24.16;31.87;98923.81;5100801;28;20015;-84
2023/04/10 09:44:39;;;;;;;;;;;;;;;24.16;31.71;98926.63;5104623;28;19924;-83
2023/04/10 09:47:21;;;;;;;;;;;;;;;23.58;32.59;98933.88;5102396;28;19920;-84
2023/04/10 09:49:51;;;;;;;;;;;;;;;23.89;32.02;98932.06;5103110;28;19951;-85
2023/04/10 09:52:21;;;;;;;;;;;;;;;23.84;32.27;98929.69;5098855;28;20383;-84
2023/04/10 09:54:47;;;;;;;;;;;;;;;23.09;33.93;98928.50;5101937;28;19919;-84
2023/04/10 09:57:15;;;;;;;;;;;;;;;23.34;33.31;98923.56;5103491;27;19916;-83
2023/04/10 09:59:43;;;;;;;;;;;;;;;24.01;32.44;98931.56;5098540;28;20023;-84
2023/04/10 10:02:12;;;;;;;;;;;;;;;24.59;31.75;98923.03;5095820;27;20452;-85
2023/04/10 10:04:40;;;;;;;;;;;;;;;24.70;31.08;98917.28;5095224;28;19926;-85
2023/04/10 10:07:06;;;;;;;;;;;;;;;24.85;30.48;98920.75;5083456;28;19934;-84
2023/04/10 10:09:34;;;;;;;;;;;;;;;24.83;30.50;98915.56;5080929;28;19927;-84
2023/04/10 10:12:01;;;;;;;;;;;;;;;24.56;31.62;98920.22;5101761;28;19977;-84
2023/04/10 10:14:27;;;;;;;;;;;;;;;24.86;30.71;98913.91;5091870;28;20416;-83
2023/04/10 10:16:56;;;;;;;;;;;;;;;24.81;31.11;98915.16;5096333;28;19927;-83
2023/04/10 10:19:26;;;;;;;;;;;;;;;24.65;30.78;98910.09;5088080;28;20332;-83
2023/04/10 10:21:53;;;;;;;;;;;;;;;24.76;31.51;98912.00;5093471;28;21388;-83
2023/04/10 10:24:20;;;;;;;;;;;;;;;24.48;31.18;98910.31;5094363;28;20391;-84
2023/04/10 10:26:46;;;;;;;;;;;;;;;24.66;31.57;98913.72;5095533;28;20462;-84
2023/04/10 10:29:16;;;;;;;;;;;;;;;24.40;31.31;98908.78;5105000;28;20390;-83
2023/04/10 10:31:42;;;;;;;;;;;;;;;24.44;31.31;98907.53;5085886;28;19923;-83
2023/04/10 10:34:08;;;;;;;;;;;;;;;23.97;32.02;98911.94;5103667;28;19920;-83
2023/04/10 10:36:35;;;;;;;;;;;;;;;24.18;32.10;98915.81;5101762;28;20387;-83
2023/04/10 10:39:04;;;;;;;;;;;;;;;24.28;31.84;98904.47;5107138;28;19920;-83
2023/04/10 10:41:34;;;;;;;;;;;;;;;24.27;31.26;98899.28;5099830;28;19920;-83
2023/04/10 10:44:06;;;;;;;;;;;;;;;24.15;32.25;98900.59;5099196;27;20065;-83
2023/04/10 10:46:32;;;;;;;;;;;;;;;24.12;32.13;98901.44;5100928;27;20014;-83
2023/04/10 10:48:59;;;;;;;;;;;;;;;24.77;30.84;98891.94;5106104;27;20014;-83
2023/04/10 10:51:43;;;;;;;;;;;;;;;24.88;31.07;98892.59;5102409;27;20395;-84
2023/04/10 10:54:32;;;;;;;;;;;;;;;24.50;31.99;98891.03;5097018;27;20018;-84
2023/04/10 10:56:59;;;;;;;;;;;;;;;25.03;31.13;98887.63;5102019;28;19919;-84
2023/04/10 10:59:43;;;;;;;;;;;;;;;24.95;31.17;98886.91;5104977;27;19959;-84
2023/04/10 11:02:15;;;;;;;;;;;;;;;25.34;31.30;98887.16;5103826;27;19923;-83
2023/04/10 11:04:44;;;;;;;;;;;;;;;25.55;31.08;98885.31;5105197;27;19922;-84
2023/04/10 11:07:11;;;;;;;;;;;;;;;25.05;31.20;98880.34;5102334;27;20014;-84
2023/04/10 11:09:43;;;;;;;;;;;;;;;24.90;31.87;98875.34;5102246;27;20027;-84
2023/04/10 11:12:09;;;;;;;;;;;;;;;25.27;31.54;98869.63;5099007;27;19991;-83
2023/04/10 11:14:35;;;;;;;;;;;;;;;25.51;31.24;98870.53;5098125;27;20387;-82
2023/04/10 11:17:01;;;;;;;;;;;;;;;25.59;30.93;98866.34;5099982;27;20029;-82
2023/04/10 11:19:27;;;;;;;;;;;;;;;26.09;30.77;98869.97;5098846;27;19928;-84
2023/04/10 11:22:04;;;;;;;;;;;;;;;26.49;30.28;98859.59;5102413;27;19920;-85
2023/04/10 11:24:53;;;;;;;;;;;;;;;26.50;30.24;98861.97;5093985;28;20413;-83
2023/04/10 11:27:37;;;;;;;;;;;;;;;26.51;29.18;98862.78;5098440;27;20383;-82
2023/04/10 11:30:03;;;;;;;;;;;;;;;25.86;30.82;98867.13;5101501;27;19923;-84
2023/04/10 11:32:39;;;;;;;;;;;;;;;25.67;30.96;98865.03;5101899;27;19935;-84
2023/04/10 11:35:06;;;;;;;;;;;;;;;26.10;31.27;98851.84;5097818;27;19920;-84
2023/04/10 11:37:32;;;;;;;;;;;;;;;26.22;29.84;98847.63;5087294;28;19973;-83
2023/04/10 11:40:04;;;;;;;;;;;;;;;26.17;29.73;98843.28;5102964;27;19928;-84
2023/04/10 11:42:30;;;;;;;;;;;;;;;26.19;30.38;98849.28;5104316;28;19920;-84
2023/04/10 11:44:58;;;;;;;;;;;;;;;26.31;29.80;98840.22;5103678;28;19934;-82
2023/04/10 11:47:25;;;;;;;;;;;;;;;26.61;30.24;98836.41;5095577;27;20041;-84
2023/04/10 11:49:54;;;;;;;;;;;;;;;26.96;29.79;98841.31;5104136;27;20327;-83
2023/04/10 11:52:24;;;;;;;;;;;;;;;26.81;29.50;98836.44;5108274;27;19919;-84
2023/04/10 11:54:50;;;;;;;;;;;;;;;26.56;29.73;98829.25;5107441;27;21989;-84
2023/04/10 11:57:16;;;;;;;;;;;;;;;26.67;30.86;98829.03;5103109;28;19919;-84
2023/04/10 11:59:48;;;;;;;;;;;;;;;26.90;30.56;98828.19;5102918;28;20000;-87
2023/04/10 12:02:14;;;;;;;;;;;;;;;27.00;29.82;98825.13;5101032;27;19934;-85
2023/04/10 12:04:41;;;;;;;;;;;;;;;26.96;29.98;98820.78;5102936;28;19990;-85
2023/04/10 12:07:07;;;;;;;;;;;;;;;27.15;29.83;98817.16;5105955;27;19926;-87
2023/04/10 12:09:33;;;;;;;;;;;;;;;27.19;30.37;98815.81;5097901;27;19919;-86
2023/04/10 12:12:00;;;;;;;;;;;;;;;27.06;30.11;98811.31;5101246;28;19942;-85
2023/04/10 12:14:37;;;;;;;;;;;;;;;27.31;29.51;98809.50;5103398;28;21051;-85
2023/04/10 12:17:03;;;;;;;;;;;;;;;27.49;29.64;98806.31;5096610;27;19920;-86
2023/04/10 12:19:30;;;;;;;;;;;;;;;27.63;29.98;98805.16;5098866;27;20333;-87
2023/04/10 12:21:57;;;;;;;;;;;;;;;27.66;29.28;98796.59;5105167;27;19920;-88
2023/04/10 12:24:42;;;;;;;;;;;;;;;27.59;29.89;98795.97;5103875;28;20467;-86
2023/04/10 12:27:16;;;;;;;;;;;;;;;27.89;29.74;98787.94;5099363;27;19927;-86
2023/04/10 12:29:43;;;;;;;;;;;;;;;28.08;29.22;98783.44;5100646;27;19919;-85
2023/04/10 12:32:09;;;;;;;;;;;;;;;28.23;30.10;98783.84;5107940;27;20315;-86
2023/04/10 12:34:35;;;;;;;;;;;;;;;28.06;29.80;98771.78;5107783;28;20235;-86
2023/04/10 12:37:01;;;;;;;;;;;;;;;28.16;29.59;98769.91;5107010;28;20375;-85
2023/04/10 12:39:28;;;;;;;;;;;;;;;28.11;29.39;98759.16;5102595;27;19935;-88
2023/04/10 12:42:09;;;;;;;;;;;;;;;28.02;30.50;98754.97;5082005;28;19924;-87
2023/04/10 12:44:48;;;;;;;;;;;;;;;28.31;30.43;98751.34;5107185;27;19920;-88
2023/04/10 12:47:14;;;;;;;;;;;;;;;28.41;30.20;98748.19;5087565;28;19989;-88
2023/04/10 12:49:40;;;;;;;;;;;;;;;28.31;28.40;98748.53;5099635;27;19989;-84